sensor_id;sensor_type;location;lat;lon;timestamp;pressure;altitude;pressure_sealevel;temperature;humidity
75157;BME280;63736;50.076;8.198;2023-04-03T00:00:40;100568.78;;;3.73;99.93
75157;BME280;63736;50.076;8.198;2023-04-03T00:03:05;100558.09;;;3.76;99.18
75157;BME280;63736;50.076;8.198;2023-04-03T00:05:30;100562.38;;;3.79;99.23
75157;BME280;63736;50.076;8.198;2023-04-03T00:07:56;100570.25;;;3.80;99.26
75157;BME280;63736;50.076;8.198;2023-04-03T00:10:22;100565.72;;;3.84;96.88
75157;BME280;63736;50.076;8.198;2023-04-03T00:12:47;100567.38;;;3.87;96.77
75157;BME280;63736;50.076;8.198;2023-04-03T00:15:12;100563.69;;;3.91;96.48
75157;BME280;63736;50.076;8.198;2023-04-03T00:17:38;100572.34;;;3.94;96.91
75157;BME280;63736;50.076;8.198;2023-04-03T00:20:03;100565.19;;;3.98;96.05
75157;BME280;63736;50.076;8.198;2023-04-03T00:22:29;100567.69;;;4.01;95.65
75157;BME280;63736;50.076;8.198;2023-04-03T00:24:55;100564.91;;;4.04;94.27
75157;BME280;63736;50.076;8.198;2023-04-03T00:27:20;100560.38;;;4.08;90.42
75157;BME280;63736;50.076;8.198;2023-04-03T00:29:46;100564.53;;;4.13;87.55
75157;BME280;63736;50.076;8.198;2023-04-03T00:32:11;100563.63;;;4.14;88.17
75157;BME280;63736;50.076;8.198;2023-04-03T00:34:36;100563.50;;;4.18;87.48
75157;BME280;63736;50.076;8.198;2023-04-03T00:37:02;100560.72;;;4.21;87.82
75157;BME280;63736;50.076;8.198;2023-04-03T00:39:27;100562.47;;;4.22;88.13
75157;BME280;63736;50.076;8.198;2023-04-03T00:41:52;100561.53;;;4.23;85.42
75157;BME280;63736;50.076;8.198;2023-04-03T00:46:58;100563.13;;;4.27;84.92
75157;BME280;63736;50.076;8.198;2023-04-03T00:49:24;100570.16;;;4.28;83.76
75157;BME280;63736;50.076;8.198;2023-04-03T00:51:49;100559.50;;;4.29;82.34
75157;BME280;63736;50.076;8.198;2023-04-03T00:54:16;100565.53;;;4.33;79.95
75157;BME280;63736;50.076;8.198;2023-04-03T00:56:41;100556.66;;;4.34;77.17
75157;BME280;63736;50.076;8.198;2023-04-03T00:59:15;100560.94;;;4.37;78.22
75157;BME280;63736;50.076;8.198;2023-04-03T01:01:42;100555.66;;;4.37;78.34
75157;BME280;63736;50.076;8.198;2023-04-03T01:04:37;100562.69;;;4.38;78.55
75157;BME280;63736;50.076;8.198;2023-04-03T01:07:21;100560.91;;;4.38;79.31
75157;BME280;63736;50.076;8.198;2023-04-03T01:09:48;100552.97;;;4.38;79.85
75157;BME280;63736;50.076;8.198;2023-04-03T01:14:47;100563.41;;;4.41;80.57
75157;BME280;63736;50.076;8.198;2023-04-03T01:25:51;100557.13;;;4.44;80.69
75157;BME280;63736;50.076;8.198;2023-04-03T01:28:35;100562.34;;;4.45;79.96
75157;BME280;63736;50.076;8.198;2023-04-03T01:31:09;100570.22;;;4.47;80.18
75157;BME280;63736;50.076;8.198;2023-04-03T01:33:37;100572.03;;;4.46;80.81
75157;BME280;63736;50.076;8.198;2023-04-03T01:36:03;100572.03;;;4.46;80.77
75157;BME280;63736;50.076;8.198;2023-04-03T01:38:29;100566.66;;;4.48;80.35
75157;BME280;63736;50.076;8.198;2023-04-03T01:40:55;100564.94;;;4.47;78.89
75157;BME280;63736;50.076;8.198;2023-04-03T01:43:20;100567.47;;;4.50;78.37
75157;BME280;63736;50.076;8.198;2023-04-03T01:45:45;100563.88;;;4.51;77.98
75157;BME280;63736;50.076;8.198;2023-04-03T01:48:12;100567.41;;;4.52;78.95
75157;BME280;63736;50.076;8.198;2023-04-03T01:50:37;100563.88;;;4.51;78.34
75157;BME280;63736;50.076;8.198;2023-04-03T01:53:02;100569.13;;;4.53;76.08
75157;BME280;63736;50.076;8.198;2023-04-03T01:55:28;100576.06;;;4.55;75.53
75157;BME280;63736;50.076;8.198;2023-04-03T01:57:53;100577.00;;;4.54;75.42
75157;BME280;63736;50.076;8.198;2023-04-03T02:00:18;100570.63;;;4.58;75.27
75157;BME280;63736;50.076;8.198;2023-04-03T02:02:44;100567.19;;;4.56;74.78
75157;BME280;63736;50.076;8.198;2023-04-03T02:05:09;100571.56;;;4.57;75.47
75157;BME280;63736;50.076;8.198;2023-04-03T02:07:34;100570.78;;;4.55;76.09
75157;BME280;63736;50.076;8.198;2023-04-03T02:10:00;100570.78;;;4.55;76.30
75157;BME280;63736;50.076;8.198;2023-04-03T02:12:25;100574.34;;;4.54;76.30
75157;BME280;63736;50.076;8.198;2023-04-03T02:14:50;100564.59;;;4.55;76.79
75157;BME280;63736;50.076;8.198;2023-04-03T02:17:16;100570.81;;;4.54;77.17
75157;BME280;63736;50.076;8.198;2023-04-03T02:19:41;100573.53;;;4.52;76.81
75157;BME280;63736;50.076;8.198;2023-04-03T02:22:06;100570.03;;;4.52;77.11
75157;BME280;63736;50.076;8.198;2023-04-03T02:24:32;100566.59;;;4.50;77.87
75157;BME280;63736;50.076;8.198;2023-04-03T02:26:57;100569.31;;;4.48;78.62
75157;BME280;63736;50.076;8.198;2023-04-03T02:29:22;100567.66;;;4.45;78.74
75157;BME280;63736;50.076;8.198;2023-04-03T02:31:48;100568.56;;;4.44;79.31
75157;BME280;63736;50.076;8.198;2023-04-03T02:34:14;100559.88;;;4.41;79.43
75157;BME280;63736;50.076;8.198;2023-04-03T02:36:39;100557.31;;;4.39;79.74
75157;BME280;63736;50.076;8.198;2023-04-03T02:39:04;100554.81;;;4.36;79.95
75157;BME280;63736;50.076;8.198;2023-04-03T02:41:30;100560.25;;;4.33;80.83
75157;BME280;63736;50.076;8.198;2023-04-03T02:44:03;100563.06;;;4.28;81.99
75157;BME280;63736;50.076;8.198;2023-04-03T02:46:29;100557.84;;;4.27;82.24
75157;BME280;63736;50.076;8.198;2023-04-03T02:48:54;100557.94;;;4.24;82.69
75157;BME280;63736;50.076;8.198;2023-04-03T02:51:19;100557.16;;;4.22;83.01
75157;BME280;63736;50.076;8.198;2023-04-03T02:53:45;100560.66;;;4.22;82.87
75157;BME280;63736;50.076;8.198;2023-04-03T02:56:10;100551.06;;;4.20;83.11
75157;BME280;63736;50.076;8.198;2023-04-03T02:58:35;100561.72;;;4.18;84.02
75157;BME280;63736;50.076;8.198;2023-04-03T03:01:01;100554.84;;;4.14;84.81
75157;BME280;63736;50.076;8.198;2023-04-03T03:03:26;100556.59;;;4.13;84.74
75157;BME280;63736;50.076;8.198;2023-04-03T03:06:12;100555.81;;;4.11;85.59
75157;BME280;63736;50.076;8.198;2023-04-03T03:08:38;100562.09;;;4.09;85.90
75157;BME280;63736;50.076;8.198;2023-04-03T03:11:04;100563.91;;;4.07;86.30
75157;BME280;63736;50.076;8.198;2023-04-03T03:13:29;100561.34;;;4.05;86.21
75157;BME280;63736;50.076;8.198;2023-04-03T03:15:55;100560.50;;;4.05;86.45
75157;BME280;63736;50.076;8.198;2023-04-03T03:18:20;100567.53;;;4.04;86.95
75157;BME280;63736;50.076;8.198;2023-04-03T03:20:46;100564.91;;;4.04;87.24
75157;BME280;63736;50.076;8.198;2023-04-03T03:23:11;100567.63;;;4.03;87.88
75157;BME280;63736;50.076;8.198;2023-04-03T03:25:40;100570.41;;;4.00;88.10
75157;BME280;63736;50.076;8.198;2023-04-03T03:28:06;100574.88;;;3.97;88.65
75157;BME280;63736;50.076;8.198;2023-04-03T03:30:32;100574.88;;;3.97;88.95
75157;BME280;63736;50.076;8.198;2023-04-03T03:32:57;100570.56;;;3.95;89.29
75157;BME280;63736;50.076;8.198;2023-04-03T03:35:22;100575.91;;;3.93;89.36
75157;BME280;63736;50.076;8.198;2023-04-03T03:37:48;100575.06;;;3.93;89.69
75157;BME280;63736;50.076;8.198;2023-04-03T03:40:13;100574.31;;;3.89;90.24
75157;BME280;63736;50.076;8.198;2023-04-03T03:42:39;100572.66;;;3.87;90.92
75157;BME280;63736;50.076;8.198;2023-04-03T03:45:05;100579.84;;;3.83;91.19
75157;BME280;63736;50.076;8.198;2023-04-03T03:47:31;100576.44;;;3.79;92.06
75157;BME280;63736;50.076;8.198;2023-04-03T03:49:56;100573.13;;;3.74;92.71
75157;BME280;63736;50.076;8.198;2023-04-03T03:52:21;100576.94;;;3.67;93.59
75157;BME280;63736;50.076;8.198;2023-04-03T03:54:46;100570.97;;;3.62;94.07
75157;BME280;63736;50.076;8.198;2023-04-03T03:57:12;100578.31;;;3.54;94.92
75157;BME280;63736;50.076;8.198;2023-04-03T03:59:37;100567.94;;;3.49;96.28
75157;BME280;63736;50.076;8.198;2023-04-03T04:02:02;100572.53;;;3.44;96.77
75157;BME280;63736;50.076;8.198;2023-04-03T04:04:28;100571.06;;;3.35;97.12
75157;BME280;63736;50.076;8.198;2023-04-03T04:06:53;100580.09;;;3.29;98.52
75157;BME280;63736;50.076;8.198;2023-04-03T04:09:18;100578.50;;;3.25;99.23
75157;BME280;63736;50.076;8.198;2023-04-03T04:11:44;100581.16;;;3.24;99.46
75157;BME280;63736;50.076;8.198;2023-04-03T04:14:10;100579.56;;;3.20;99.84
75157;BME280;63736;50.076;8.198;2023-04-03T04:16:37;100588.50;;;3.16;100.00
75157;BME280;63736;50.076;8.198;2023-04-03T04:19:02;100574.56;;;3.12;100.00
75157;BME280;63736;50.076;8.198;2023-04-03T04:21:27;100582.59;;;3.09;100.00
75157;BME280;63736;50.076;8.198;2023-04-03T04:23:53;100585.38;;;3.04;100.00
75157;BME280;63736;50.076;8.198;2023-04-03T04:26:18;100583.91;;;2.97;100.00
75157;BME280;63736;50.076;8.198;2023-04-03T04:28:43;100581.34;;;2.94;100.00
75157;BME280;63736;50.076;8.198;2023-04-03T04:31:08;100588.53;;;2.90;100.00
75157;BME280;63736;50.076;8.198;2023-04-03T04:33:34;100579.09;;;2.83;100.00
75157;BME280;63736;50.076;8.198;2023-04-03T04:35:59;100579.38;;;2.75;100.00
75157;BME280;63736;50.076;8.198;2023-04-03T04:38:25;100577.75;;;2.71;100.00
75157;BME280;63736;50.076;8.198;2023-04-03T04:40:50;100583.16;;;2.68;100.00
75157;BME280;63736;50.076;8.198;2023-04-03T04:43:16;100583.19;;;2.67;100.00
75157;BME280;63736;50.076;8.198;2023-04-03T04:45:41;100597.50;;;2.59;100.00
75157;BME280;63736;50.076;8.198;2023-04-03T04:48:07;100590.66;;;2.54;100.00
75157;BME280;63736;50.076;8.198;2023-04-03T04:50:32;100588.22;;;2.47;99.87
75157;BME280;63736;50.076;8.198;2023-04-03T04:52:57;100599.81;;;2.43;98.44
75157;BME280;63736;50.076;8.198;2023-04-03T04:55:23;100591.19;;;2.37;98.71
75157;BME280;63736;50.076;8.198;2023-04-03T04:57:48;100596.88;;;2.24;99.26
75157;BME280;63736;50.076;8.198;2023-04-03T05:00:14;100596.31;;;2.14;100.00
75157;BME280;63736;50.076;8.198;2023-04-03T05:02:40;100600.06;;;2.07;100.00
75157;BME280;63736;50.076;8.198;2023-04-03T05:05:05;100596.75;;;2.01;100.00
75157;BME280;63736;50.076;8.198;2023-04-03T05:07:31;100597.66;;;2.00;100.00
75157;BME280;63736;50.076;8.198;2023-04-03T05:09:56;100599.47;;;1.97;100.00
75157;BME280;63736;50.076;8.198;2023-04-03T05:12:21;100606.53;;;1.97;100.00
75157;BME280;63736;50.076;8.198;2023-04-03T05:14:47;100603.91;;;1.97;100.00
75157;BME280;63736;50.076;8.198;2023-04-03T05:17:12;100610.00;;;1.97;100.00
75157;BME280;63736;50.076;8.198;2023-04-03T05:19:37;100615.25;;;1.99;100.00
75157;BME280;63736;50.076;8.198;2023-04-03T05:22:03;100617.78;;;2.02;100.00
75157;BME280;63736;50.076;8.198;2023-04-03T05:24:28;100611.56;;;2.05;100.00
75157;BME280;63736;50.076;8.198;2023-04-03T05:26:53;100618.34;;;2.12;100.00
75157;BME280;63736;50.076;8.198;2023-04-03T05:29:18;100624.31;;;2.19;100.00
75157;BME280;63736;50.076;8.198;2023-04-03T05:31:44;100620.63;;;2.24;100.00
75157;BME280;63736;50.076;8.198;2023-04-03T05:34:10;100624.78;;;2.31;100.00
75157;BME280;63736;50.076;8.198;2023-04-03T05:36:35;100634.22;;;2.39;100.00
75157;BME280;63736;50.076;8.198;2023-04-03T05:39:00;100627.78;;;2.47;100.00
75157;BME280;63736;50.076;8.198;2023-04-03T05:41:26;100632.69;;;2.58;100.00
75157;BME280;63736;50.076;8.198;2023-04-03T05:43:51;100627.13;;;2.68;99.92
75157;BME280;63736;50.076;8.198;2023-04-03T05:46:18;100631.16;;;2.78;98.91
75157;BME280;63736;50.076;8.198;2023-04-03T05:48:44;100628.78;;;2.97;98.40
75157;BME280;63736;50.076;8.198;2023-04-03T05:51:16;100638.41;;;3.23;96.77
75157;BME280;63736;50.076;8.198;2023-04-03T05:53:42;100630.91;;;3.36;95.16
75157;BME280;63736;50.076;8.198;2023-04-03T05:56:08;100637.47;;;3.50;94.04
75157;BME280;63736;50.076;8.198;2023-04-03T05:58:33;100633.50;;;3.61;92.41
75157;BME280;63736;50.076;8.198;2023-04-03T06:00:59;100641.31;;;3.88;91.46
75157;BME280;63736;50.076;8.198;2023-04-03T06:03:24;100637.78;;;4.99;85.84
75157;BME280;63736;50.076;8.198;2023-04-03T06:05:50;100628.63;;;6.60;77.71
75157;BME280;63736;50.076;8.198;2023-04-03T06:08:15;100639.09;;;6.98;69.04
75157;BME280;63736;50.076;8.198;2023-04-03T06:10:40;100640.47;;;6.89;68.31
75157;BME280;63736;50.076;8.198;2023-04-03T06:13:06;100638.16;;;6.64;66.73
75157;BME280;63736;50.076;8.198;2023-04-03T06:15:31;100643.66;;;6.42;66.09
75157;BME280;63736;50.076;8.198;2023-04-03T06:17:56;100642.19;;;6.36;68.53
75157;BME280;63736;50.076;8.198;2023-04-03T06:20:22;100645.66;;;6.19;66.38
75157;BME280;63736;50.076;8.198;2023-04-03T06:22:47;100648.44;;;6.16;67.88
75157;BME280;63736;50.076;8.198;2023-04-03T06:25:13;100648.47;;;6.88;66.66
75157;BME280;63736;50.076;8.198;2023-04-03T06:27:38;100652.88;;;7.91;60.37
75157;BME280;63736;50.076;8.198;2023-04-03T06:30:05;100656.69;;;7.69;56.28
75157;BME280;63736;50.076;8.198;2023-04-03T06:32:31;100655.25;;;7.46;57.36
75157;BME280;63736;50.076;8.198;2023-04-03T06:34:56;100658.03;;;7.60;56.22
75157;BME280;63736;50.076;8.198;2023-04-03T06:37:23;100659.69;;;8.91;52.51
75157;BME280;63736;50.076;8.198;2023-04-03T06:39:51;100646.16;;;10.53;47.79
75157;BME280;63736;50.076;8.198;2023-04-03T06:42:16;100643.53;;;11.70;43.97
75157;BME280;63736;50.076;8.198;2023-04-03T06:44:42;100642.59;;;12.46;41.47
75157;BME280;63736;50.076;8.198;2023-04-03T06:47:11;100648.97;;;13.51;40.38
75157;BME280;63736;50.076;8.198;2023-04-03T06:49:36;100660.00;;;14.49;37.57
75157;BME280;63736;50.076;8.198;2023-04-03T06:52:02;100655.28;;;14.41;35.80
75157;BME280;63736;50.076;8.198;2023-04-03T06:54:27;100661.81;;;14.48;36.17
75157;BME280;63736;50.076;8.198;2023-04-03T06:56:53;100660.63;;;14.85;34.84
75157;BME280;63736;50.076;8.198;2023-04-03T06:59:18;100664.47;;;15.46;34.38
75157;BME280;63736;50.076;8.198;2023-04-03T07:01:44;100659.41;;;15.52;33.02
75157;BME280;63736;50.076;8.198;2023-04-03T07:04:09;100662.75;;;15.87;32.17
75157;BME280;63736;50.076;8.198;2023-04-03T07:06:35;100674.31;;;15.57;31.61
75157;BME280;63736;50.076;8.198;2023-04-03T07:09:01;100674.75;;;15.62;31.78
75157;BME280;63736;50.076;8.198;2023-04-03T07:11:26;100681.28;;;16.11;31.41
75157;BME280;63736;50.076;8.198;2023-04-03T07:13:52;100677.13;;;16.67;31.49
75157;BME280;63736;50.076;8.198;2023-04-03T07:16:18;100682.13;;;17.31;30.25
75157;BME280;63736;50.076;8.198;2023-04-03T07:18:44;100684.97;;;16.20;29.11
75157;BME280;63736;50.076;8.198;2023-04-03T07:21:09;100690.91;;;15.62;30.40
75157;BME280;63736;50.076;8.198;2023-04-03T07:23:35;100688.94;;;16.16;30.28
75157;BME280;63736;50.076;8.198;2023-04-03T07:26:01;100682.28;;;16.90;29.77
75157;BME280;63736;50.076;8.198;2023-04-03T07:28:26;100677.84;;;16.69;28.59
75157;BME280;63736;50.076;8.198;2023-04-03T07:30:54;100685.31;;;16.37;28.77
75157;BME280;63736;50.076;8.198;2023-04-03T07:33:21;100686.00;;;16.29;28.97
75157;BME280;63736;50.076;8.198;2023-04-03T07:35:47;100694.63;;;16.23;28.45
75157;BME280;63736;50.076;8.198;2023-04-03T07:38:13;100692.28;;;16.39;29.06
75157;BME280;63736;50.076;8.198;2023-04-03T07:40:38;100690.66;;;17.16;28.09
75157;BME280;63736;50.076;8.198;2023-04-03T07:43:04;100704.28;;;17.44;26.39
75157;BME280;63736;50.076;8.198;2023-04-03T07:45:30;100694.66;;;17.03;27.21
75157;BME280;63736;50.076;8.198;2023-04-03T07:47:55;100695.81;;;17.00;27.51
75157;BME280;63736;50.076;8.198;2023-04-03T07:50:21;100705.44;;;17.32;26.82
75157;BME280;63736;50.076;8.198;2023-04-03T07:52:47;100707.25;;;17.51;26.52
75157;BME280;63736;50.076;8.198;2023-04-03T07:55:12;100702.78;;;17.79;26.09
75157;BME280;63736;50.076;8.198;2023-04-03T07:57:38;100709.75;;;17.72;25.88
75157;BME280;63736;50.076;8.198;2023-04-03T08:00:04;100705.81;;;17.66;25.83
75157;BME280;63736;50.076;8.198;2023-04-03T08:02:30;100719.13;;;17.97;26.03
75157;BME280;63736;50.076;8.198;2023-04-03T08:04:57;100713.31;;;18.20;25.86
75157;BME280;63736;50.076;8.198;2023-04-03T08:07:23;100709.81;;;18.83;25.36
75157;BME280;63736;50.076;8.198;2023-04-03T08:09:48;100703.66;;;18.91;24.95
75157;BME280;63736;50.076;8.198;2023-04-03T08:12:14;100720.91;;;18.90;24.34
75157;BME280;63736;50.076;8.198;2023-04-03T08:14:40;100728.66;;;17.82;24.91
75157;BME280;63736;50.076;8.198;2023-04-03T08:17:05;100710.63;;;17.63;25.57
75157;BME280;63736;50.076;8.198;2023-04-03T08:19:34;100708.25;;;17.50;25.76
75157;BME280;63736;50.076;8.198;2023-04-03T08:22:00;100713.97;;;18.04;25.88
75157;BME280;63736;50.076;8.198;2023-04-03T08:24:28;100706.00;;;18.76;25.11
75157;BME280;63736;50.076;8.198;2023-04-03T08:26:53;100714.63;;;18.16;24.88
75157;BME280;63736;50.076;8.198;2023-04-03T08:29:18;100700.09;;;17.79;25.40
75157;BME280;63736;50.076;8.198;2023-04-03T08:31:44;100720.50;;;17.15;25.77
75157;BME280;63736;50.076;8.198;2023-04-03T08:34:10;100722.50;;;17.23;26.33
75157;BME280;63736;50.076;8.198;2023-04-03T08:36:37;100718.06;;;17.41;26.20
75157;BME280;63736;50.076;8.198;2023-04-03T08:39:02;100720.34;;;17.16;26.04
75157;BME280;63736;50.076;8.198;2023-04-03T08:41:38;100714.41;;;16.93;26.35
75157;BME280;63736;50.076;8.198;2023-04-03T08:44:24;100751.91;;;17.16;26.89
75157;BME280;63736;50.076;8.198;2023-04-03T08:47:20;100717.13;;;16.52;26.98
75157;BME280;63736;50.076;8.198;2023-04-03T08:49:51;100718.81;;;17.24;26.45
75157;BME280;63736;50.076;8.198;2023-04-03T08:52:35;100718.97;;;17.03;26.67
75157;BME280;63736;50.076;8.198;2023-04-03T08:55:07;100721.00;;;16.19;26.83
75157;BME280;63736;50.076;8.198;2023-04-03T08:57:43;100730.94;;;15.88;27.65
75157;BME280;63736;50.076;8.198;2023-04-03T09:00:21;100730.78;;;15.89;27.38
75157;BME280;63736;50.076;8.198;2023-04-03T09:02:49;100715.91;;;16.66;27.08
75157;BME280;63736;50.076;8.198;2023-04-03T09:05:18;100722.31;;;16.85;26.51
75157;BME280;63736;50.076;8.198;2023-04-03T09:07:50;100712.41;;;16.35;27.04
75157;BME280;63736;50.076;8.198;2023-04-03T09:10:24;100718.94;;;17.22;26.31
75157;BME280;63736;50.076;8.198;2023-04-03T09:13:01;100728.88;;;17.02;26.19
75157;BME280;63736;50.076;8.198;2023-04-03T09:15:28;100730.03;;;15.35;27.32
75157;BME280;63736;50.076;8.198;2023-04-03T09:18:21;100729.69;;;14.29;29.19
75157;BME280;63736;50.076;8.198;2023-04-03T09:23:34;100739.25;;;11.14;33.47
75157;BME280;63736;50.076;8.198;2023-04-03T09:26:36;100730.41;;;12.55;31.01
75157;BME280;63736;50.076;8.198;2023-04-03T09:29:06;100732.63;;;12.85;29.36
75157;BME280;63736;50.076;8.198;2023-04-03T09:31:40;100719.91;;;13.83;28.85
75157;BME280;63736;50.076;8.198;2023-04-03T09:34:18;100710.69;;;14.53;27.49
75157;BME280;63736;50.076;8.198;2023-04-03T09:36:49;100692.38;;;15.24;26.45
75157;BME280;63736;50.076;8.198;2023-04-03T09:39:23;100718.28;;;15.36;26.89
75157;BME280;63736;50.076;8.198;2023-04-03T09:42:04;100717.28;;;14.72;27.61
75157;BME280;63736;50.076;8.198;2023-04-03T09:44:33;100737.16;;;14.92;26.92
75157;BME280;63736;50.076;8.198;2023-04-03T09:46:59;100711.44;;;14.56;27.12
75157;BME280;63736;50.076;8.198;2023-04-03T09:49:25;100708.75;;;14.56;26.91
75157;BME280;63736;50.076;8.198;2023-04-03T09:51:51;100711.09;;;14.26;27.16
75157;BME280;63736;50.076;8.198;2023-04-03T09:54:37;100737.25;;;13.90;27.98
75157;BME280;63736;50.076;8.198;2023-04-03T09:57:10;100726.91;;;12.29;29.10
75157;BME280;63736;50.076;8.198;2023-04-03T09:59:42;100720.41;;;11.02;31.76
75157;BME280;63736;50.076;8.198;2023-04-03T10:02:34;100736.72;;;10.00;34.00
75157;BME280;63736;50.076;8.198;2023-04-03T10:05:00;100727.38;;;10.07;34.60
75157;BME280;63736;50.076;8.198;2023-04-03T10:07:32;100731.94;;;10.48;34.35
75157;BME280;63736;50.076;8.198;2023-04-03T10:10:21;100729.16;;;10.50;34.64
75157;BME280;63736;50.076;8.198;2023-04-03T10:12:48;100739.66;;;10.53;34.77
75157;BME280;63736;50.076;8.198;2023-04-03T10:15:16;100765.22;;;9.99;35.44
75157;BME280;63736;50.076;8.198;2023-04-03T10:18:00;100748.78;;;9.62;36.36
75157;BME280;63736;50.076;8.198;2023-04-03T10:20:43;100724.94;;;9.45;36.86
75157;BME280;63736;50.076;8.198;2023-04-03T10:23:24;100735.53;;;9.46;37.75
75157;BME280;63736;50.076;8.198;2023-04-03T10:32:17;100769.97;;;8.23;39.38
75157;BME280;63736;50.076;8.198;2023-04-03T10:34:54;100744.16;;;7.91;40.77
75157;BME280;63736;50.076;8.198;2023-04-03T10:40:33;100722.66;;;7.96;40.98
75157;BME280;63736;50.076;8.198;2023-04-03T10:43:17;100730.03;;;8.07;40.75
75157;BME280;63736;50.076;8.198;2023-04-03T10:46:00;100722.28;;;8.02;40.94
75157;BME280;63736;50.076;8.198;2023-04-03T10:48:40;100723.66;;;7.93;41.75
75157;BME280;63736;50.076;8.198;2023-04-03T10:51:24;100733.59;;;7.90;41.64
75157;BME280;63736;50.076;8.198;2023-04-03T10:54:24;100730.38;;;8.01;41.33
75157;BME280;63736;50.076;8.198;2023-04-03T10:56:54;100735.59;;;8.02;40.92
75157;BME280;63736;50.076;8.198;2023-04-03T10:59:43;100724.69;;;7.91;41.42
75157;BME280;63736;50.076;8.198;2023-04-03T11:02:32;100729.06;;;7.92;41.63
75157;BME280;63736;50.076;8.198;2023-04-03T11:05:08;100724.50;;;7.78;41.04
75157;BME280;63736;50.076;8.198;2023-04-03T11:07:43;100717.41;;;7.61;41.37
75157;BME280;63736;50.076;8.198;2023-04-03T11:10:17;100716.91;;;7.53;41.50
75157;BME280;63736;50.076;8.198;2023-04-03T11:12:58;100727.31;;;7.57;42.20
75157;BME280;63736;50.076;8.198;2023-04-03T11:15:29;100719.72;;;7.67;42.67
75157;BME280;63736;50.076;8.198;2023-04-03T11:18:02;100716.25;;;7.83;41.95
75157;BME280;63736;50.076;8.198;2023-04-03T11:20:30;100718.88;;;8.00;41.60
75157;BME280;63736;50.076;8.198;2023-04-03T11:23:01;100717.72;;;7.88;41.00
75157;BME280;63736;50.076;8.198;2023-04-03T11:25:30;100698.72;;;7.78;41.14
75157;BME280;63736;50.076;8.198;2023-04-03T11:27:58;100706.31;;;7.86;41.42
75157;BME280;63736;50.076;8.198;2023-04-03T11:30:37;100716.94;;;7.86;40.64
75157;BME280;63736;50.076;8.198;2023-04-03T11:36:10;100700.69;;;8.24;40.95
75157;BME280;63736;50.076;8.198;2023-04-03T11:38:41;100691.19;;;8.36;39.96
75157;BME280;63736;50.076;8.198;2023-04-03T11:41:09;100711.03;;;8.63;40.26
75157;BME280;63736;50.076;8.198;2023-04-03T11:43:56;100703.13;;;8.77;39.35
75157;BME280;63736;50.076;8.198;2023-04-03T11:46:22;100697.28;;;8.70;39.36
75157;BME280;63736;50.076;8.198;2023-04-03T11:48:50;100687.91;;;8.63;38.85
75157;BME280;63736;50.076;8.198;2023-04-03T11:53:53;100665.69;;;8.48;39.38
75157;BME280;63736;50.076;8.198;2023-04-03T12:01:50;100700.16;;;8.02;40.32
75157;BME280;63736;50.076;8.198;2023-04-03T12:04:17;100684.81;;;8.07;39.58
75157;BME280;63736;50.076;8.198;2023-04-03T12:11:59;100684.47;;;7.46;40.07
75157;BME280;63736;50.076;8.198;2023-04-03T12:14:27;100670.88;;;7.52;40.79
75157;BME280;63736;50.076;8.198;2023-04-03T12:16:54;100670.91;;;7.68;40.17
75157;BME280;63736;50.076;8.198;2023-04-03T12:19:38;100679.16;;;7.64;39.59
75157;BME280;63736;50.076;8.198;2023-04-03T12:22:11;100677.13;;;7.51;39.78
75157;BME280;63736;50.076;8.198;2023-04-03T12:24:38;100663.34;;;7.60;40.47
75157;BME280;63736;50.076;8.198;2023-04-03T12:27:17;100668.16;;;7.70;39.59
75157;BME280;63736;50.076;8.198;2023-04-03T12:36:08;100650.53;;;7.85;38.20
75157;BME280;63736;50.076;8.198;2023-04-03T12:38:45;100663.44;;;7.75;38.95
75157;BME280;63736;50.076;8.198;2023-04-03T12:44:24;100647.50;;;7.75;38.03
75157;BME280;63736;50.076;8.198;2023-04-03T12:46:53;100630.69;;;7.74;38.26
75157;BME280;63736;50.076;8.198;2023-04-03T12:49:41;100634.19;;;7.75;37.68
75157;BME280;63736;50.076;8.198;2023-04-03T12:52:22;100632.31;;;7.77;37.78
75157;BME280;63736;50.076;8.198;2023-04-03T12:54:51;100625.28;;;7.76;37.48
75157;BME280;63736;50.076;8.198;2023-04-03T12:57:24;100640.53;;;7.72;36.79
75157;BME280;63736;50.076;8.198;2023-04-03T12:59:50;100622.94;;;7.70;37.56
75157;BME280;63736;50.076;8.198;2023-04-03T13:02:21;100637.88;;;7.72;37.11
75157;BME280;63736;50.076;8.198;2023-04-03T13:04:47;100620.06;;;7.74;37.02
75157;BME280;63736;50.076;8.198;2023-04-03T13:07:28;100635.84;;;7.77;37.08
75157;BME280;63736;50.076;8.198;2023-04-03T13:10:18;100628.41;;;7.84;37.14
75157;BME280;63736;50.076;8.198;2023-04-03T13:12:49;100630.03;;;7.87;36.06
75157;BME280;63736;50.076;8.198;2023-04-03T13:15:21;100628.88;;;7.75;35.98
75157;BME280;63736;50.076;8.198;2023-04-03T13:17:48;100627.00;;;7.77;35.36
75157;BME280;63736;50.076;8.198;2023-04-03T13:20:25;100617.31;;;7.76;34.36
75157;BME280;63736;50.076;8.198;2023-04-03T13:23:05;100605.56;;;7.80;35.72
75157;BME280;63736;50.076;8.198;2023-04-03T13:25:36;100627.38;;;7.87;36.18
75157;BME280;63736;50.076;8.198;2023-04-03T13:28:05;100619.13;;;7.91;36.15
75157;BME280;63736;50.076;8.198;2023-04-03T13:30:35;100604.19;;;7.89;36.05
75157;BME280;63736;50.076;8.198;2023-04-03T13:33:05;100615.72;;;7.89;36.98
75157;BME280;63736;50.076;8.198;2023-04-03T13:35:37;100624.25;;;7.94;36.84
75157;BME280;63736;50.076;8.198;2023-04-03T13:38:23;100618.78;;;7.82;35.49
75157;BME280;63736;50.076;8.198;2023-04-03T13:40:51;100633.16;;;7.77;35.20
75157;BME280;63736;50.076;8.198;2023-04-03T13:43:22;100608.63;;;7.72;35.65
75157;BME280;63736;50.076;8.198;2023-04-03T13:46:25;100607.59;;;7.75;36.27
75157;BME280;63736;50.076;8.198;2023-04-03T13:48:53;100612.88;;;7.76;35.78
75157;BME280;63736;50.076;8.198;2023-04-03T13:51:29;100606.16;;;7.69;35.65
75157;BME280;63736;50.076;8.198;2023-04-03T13:53:57;100609.59;;;7.71;35.66
75157;BME280;63736;50.076;8.198;2023-04-03T13:56:33;100595.94;;;7.77;35.47
75157;BME280;63736;50.076;8.198;2023-04-03T14:01:52;100587.13;;;7.77;36.12